Time;durP1;ratioP1;P1;durP2;ratioP2;P2;SDS_P1;SDS_P2;PMS_P1;PMS_P2;Temp;Humidity;BMP_temperature;BMP_pressure;BME280_temperature;BME280_humidity;BME280_pressure;Samples;Min_cycle;Max_cycle;Signal;HPM_P1;HPM_P2
2021/11/05 13:53:56;;;;;;;0.85;0.60;;;;;;;11.38;100.00;95701.53;5151083;27;20846;-60
2021/11/05 13:56:33;;;;;;;0.65;0.65;;;;;;;11.21;100.00;95707.03;5133234;27;20365;-58
2021/11/05 13:59:01;;;;;;;1.02;0.90;;;;;;;10.42;100.00;95674.53;5151322;27;20530;-59
2021/11/05 14:01:29;;;;;;;1.10;1.00;;;;;;;10.15;100.00;95653.00;5140862;27;20032;-59
2021/11/05 14:04:02;;;;;;;1.80;1.05;;;;;;;9.70;100.00;95664.69;5112088;28;20045;-60
2021/11/05 14:06:30;;;;;;;1.27;1.00;;;;;;;9.44;100.00;95659.97;5111879;28;20019;-60
2021/11/05 14:09:00;;;;;;;2.28;1.20;;;;;;;9.28;100.00;95634.88;5130430;28;20063;-59
2021/11/05 14:11:46;;;;;;;1.60;1.40;;;;;;;9.02;100.00;95606.94;5124125;27;20073;-59
2021/11/05 14:14:20;;;;;;;1.50;1.15;;;;;;;8.95;100.00;95593.72;5109877;28;20591;-60
2021/11/05 14:16:48;;;;;;;2.20;1.48;;;;;;;8.94;100.00;95591.28;5108268;28;20024;-59
2021/11/05 14:19:15;;;;;;;1.70;1.15;;;;;;;8.88;100.00;95593.06;5109769;28;20115;-60
2021/11/05 14:21:57;;;;;;;2.97;1.48;;;;;;;8.78;100.00;95592.06;5109508;28;20046;-58
2021/11/05 14:24:23;;;;;;;1.77;1.38;;;;;;;-144.43;100.00;64487.81;5109609;28;20387;-57
2021/11/05 14:27:13;;;;;;;1.38;1.25;;;;;;;-144.43;100.00;64487.81;5109578;28;20073;-58
2021/11/05 14:29:52;;;;;;;2.40;1.50;;;;;;;8.49;100.00;95589.44;5108193;28;20102;-59
2021/11/05 14:32:38;;;;;;;1.48;1.30;;;;;;;8.34;100.00;95581.09;5108166;28;20024;-60
2021/11/05 14:35:25;;;;;;;1.40;1.10;;;;;;;8.28;100.00;95584.75;5091314;28;20024;-59
2021/11/05 14:37:58;;;;;;;2.03;1.15;;;;;;;8.26;100.00;95589.50;5107949;28;20393;-60
2021/11/05 14:40:25;;;;;;;;;;;;;;;8.33;100.00;95590.97;5108649;28;20028;-59
2021/11/05 14:43:09;;;;;;;1.05;1.00;;;;;;;8.35;100.00;95585.44;5109305;28;19908;-59
2021/11/05 14:45:46;;;;;;;1.88;1.10;;;;;;;8.29;100.00;95591.69;5109128;28;20024;-59
2021/11/05 14:48:14;;;;;;;2.55;1.20;;;;;;;8.21;100.00;95584.88;5109065;28;20538;-60
2021/11/05 14:50:54;;;;;;;2.55;1.23;;;;;;;8.14;100.00;95589.56;5107661;28;20059;-59
2021/11/05 14:53:23;;;;;;;1.42;1.05;;;;;;;8.08;100.00;95595.81;5107753;28;20036;-58
2021/11/05 14:55:49;;;;;;;1.25;1.10;;;;;;;8.03;100.00;95593.88;5108971;28;20028;-60
2021/11/05 14:58:20;;;;;;;1.27;1.10;;;;;;;7.96;100.00;95600.38;5109087;28;20104;-60
2021/11/05 15:01:05;;;;;;;1.63;1.00;;;;;;;7.91;100.00;95605.59;5108754;28;20024;-61
2021/11/05 15:03:33;;;;;;;1.20;0.90;;;;;;;7.82;100.00;95603.31;5104805;28;20027;-56
2021/11/05 15:06:04;;;;;;;3.92;1.10;;;;;;;7.84;100.00;95603.06;5095342;28;20111;-59
2021/11/05 15:08:29;;;;;;;1.30;1.15;;;;;;;7.83;100.00;95604.13;5095342;28;20051;-60
2021/11/05 15:10:55;;;;;;;1.30;1.10;;;;;;;7.81;100.00;95600.84;5093783;28;20433;-58
2021/11/05 15:13:21;;;;;;;1.45;0.90;;;;;;;7.77;100.00;95589.03;5095192;28;20085;-58
2021/11/05 15:15:46;;;;;;;1.00;0.98;;;;;;;7.76;100.00;95592.75;5093881;28;20020;-61
2021/11/05 15:18:16;;;;;;;1.70;1.30;;;;;;;7.70;100.00;95597.16;5095057;28;20118;-60
2021/11/05 15:20:42;;;;;;;2.03;0.90;;;;;;;7.60;100.00;95596.97;5094971;28;20016;-61
2021/11/05 15:23:07;;;;;;;1.85;1.02;;;;;;;7.45;100.00;95597.41;5076794;28;20079;-61
2021/11/05 15:25:33;;;;;;;2.78;1.15;;;;;;;7.38;100.00;95593.25;5094784;28;20371;-63
2021/11/05 15:28:01;;;;;;;1.50;1.00;;;;;;;7.27;100.00;95592.19;5095096;28;20028;-62
2021/11/05 15:30:32;;;;;;;1.10;1.00;;;;;;;7.17;100.00;95587.47;5094794;28;20379;-59
2021/11/05 15:32:57;;;;;;;1.35;1.05;;;;;;;7.08;100.00;95602.16;5076608;28;20020;-63
2021/11/05 15:35:23;;;;;;;1.55;0.90;;;;;;;6.98;100.00;95593.94;5094755;28;20054;-62
2021/11/05 15:37:48;;;;;;;1.08;0.98;;;;;;;6.89;100.00;95601.44;5094684;28;20032;-62
2021/11/05 15:40:15;;;;;;;1.67;1.20;;;;;;;6.81;100.00;95609.75;5093215;28;20062;-63
2021/11/05 15:42:44;;;;;;;1.10;1.00;;;;;;;6.71;100.00;95606.81;5094481;28;20020;-62
2021/11/05 15:45:10;;;;;;;1.15;0.93;;;;;;;6.58;100.00;95607.03;5077169;28;20424;-62
2021/11/05 15:47:36;;;;;;;1.73;1.17;;;;;;;6.39;100.00;95614.25;5093254;28;20035;-62
2021/11/05 15:50:03;;;;;;;3.05;1.17;;;;;;;6.27;100.00;95611.53;5093335;28;20024;-62
2021/11/05 15:52:29;;;;;;;0.98;0.90;;;;;;;6.15;100.00;95620.50;5094028;28;20453;-62
2021/11/05 15:54:54;;;;;;;1.00;0.90;;;;;;;6.00;100.00;95639.50;5093071;28;20024;-61
2021/11/05 15:57:22;;;;;;;3.03;1.20;;;;;;;5.83;100.00;95642.72;5094298;28;20024;-62
2021/11/05 15:59:47;;;;;;;3.58;1.10;;;;;;;5.67;100.00;95645.97;5093041;28;20028;-62
2021/11/05 16:02:13;;;;;;;1.75;1.17;;;;;;;5.49;100.00;95659.22;5075984;28;20028;-62
2021/11/05 16:04:39;;;;;;;0.88;0.80;;;;;;;5.33;100.00;95673.06;5094192;28;20020;-61
2021/11/05 16:07:04;;;;;;;1.77;1.00;;;;;;;5.14;100.00;95677.50;5092650;28;20131;-58
2021/11/05 16:09:30;;;;;;;1.95;1.17;;;;;;;4.97;100.00;95692.31;5092981;28;20028;-62
2021/11/05 16:11:55;;;;;;;1.85;1.00;;;;;;;4.79;100.00;95704.50;5093808;28;20027;-62
2021/11/05 16:14:21;;;;;;;2.90;0.95;;;;;;;4.60;100.00;95724.81;5094048;28;20039;-62
2021/11/05 16:16:49;;;;;;;3.17;1.15;;;;;;;4.43;100.00;95734.25;5074913;28;20028;-62
2021/11/05 16:19:18;;;;;;;1.42;1.10;;;;;;;4.28;100.00;95757.56;5092778;28;20032;-62
2021/11/05 16:21:43;;;;;;;3.05;1.10;;;;;;;4.15;100.00;95769.03;5092459;28;20444;-62
2021/11/05 16:24:13;;;;;;;1.65;0.95;;;;;;;4.03;100.00;95789.25;5088209;28;20110;-62
2021/11/05 16:26:39;;;;;;;1.95;1.23;;;;;;;3.92;100.00;95809.25;5084951;28;20036;-60
2021/11/05 16:29:09;;;;;;;1.23;0.90;;;;;;;3.82;100.00;95816.78;5090513;28;20031;-62
2021/11/05 16:31:34;;;;;;;1.48;1.13;;;;;;;3.72;100.00;95840.22;5069266;28;20417;-62
2021/11/05 16:34:00;;;;;;;1.67;1.35;;;;;;;3.64;100.00;95858.97;5089011;28;20024;-64
2021/11/05 16:36:26;;;;;;;1.27;1.17;;;;;;;3.52;100.00;95872.00;5089511;28;20468;-61
2021/11/05 16:38:51;;;;;;;1.80;1.25;;;;;;;3.41;100.00;95884.00;5088806;28;20102;-62
2021/11/05 16:41:20;;;;;;;2.53;1.35;;;;;;;3.32;100.00;95892.31;5090276;28;20016;-62
2021/11/05 16:43:49;;;;;;;1.73;1.33;;;;;;;3.22;100.00;95905.94;5081337;28;20383;-62
2021/11/05 16:46:17;;;;;;;1.90;1.35;;;;;;;3.11;100.00;95917.91;5070575;28;20035;-62
2021/11/05 16:48:44;;;;;;;1.23;1.10;;;;;;;3.04;100.00;95934.75;5071507;28;20031;-61
2021/11/05 16:51:19;;;;;;;2.03;1.50;;;;;;;2.92;100.00;95943.25;5079247;28;20044;-58
2021/11/05 16:53:45;;;;;;;2.45;1.40;;;;;;;2.84;100.00;95951.38;5089296;28;20046;-60
2021/11/05 16:56:12;;;;;;;1.30;1.17;;;;;;;2.72;100.00;95962.72;5089683;28;20054;-60
2021/11/05 16:58:41;;;;;;;3.58;1.40;;;;;;;2.64;100.00;95966.31;5089413;28;20024;-60
2021/11/05 17:01:06;;;;;;;3.05;1.50;;;;;;;2.58;100.00;95977.66;5077377;28;20024;-61
2021/11/05 17:03:33;;;;;;;2.47;1.30;;;;;;;2.48;100.00;95999.16;5055012;28;20183;-60
2021/11/05 17:06:07;;;;;;;4.00;1.52;;;;;;;2.39;100.00;96004.75;5086432;28;20615;-61
2021/11/05 17:08:33;;;;;;;2.17;1.60;;;;;;;2.33;100.00;96007.16;5089161;28;20020;-62
2021/11/05 17:10:59;;;;;;;2.53;1.83;;;;;;;2.27;100.00;96015.03;5095870;22;20034;-67
2021/11/05 17:13:25;;;;;;;2.38;1.80;;;;;;;2.21;100.00;96021.09;5055080;28;20071;-68
2021/11/05 17:15:54;;;;;;;1.50;1.40;;;;;;;2.14;100.00;96036.88;5063298;28;20032;-67
2021/11/05 17:18:19;;;;;;;4.45;1.95;;;;;;;2.07;100.00;96027.28;5062045;28;20363;-67
2021/11/05 17:20:48;;;;;;;4.20;1.90;;;;;;;1.99;100.00;96034.31;5058116;28;20111;-68
2021/11/05 17:23:13;;;;;;;5.00;1.80;;;;;;;1.98;100.00;96037.97;5062326;28;20016;-67
2021/11/05 17:25:42;;;;;;;2.17;1.63;;;;;;;1.95;100.00;96038.34;5066924;28;20039;-67
2021/11/05 17:28:07;;;;;;;3.53;1.70;;;;;;;1.89;100.00;96044.38;5060292;28;20024;-68
2021/11/05 17:30:36;;;;;;;2.35;1.70;;;;;;;1.82;100.00;96043.47;5047319;28;20022;-68
2021/11/05 17:33:04;;;;;;;2.63;1.30;;;;;;;1.75;100.00;96050.50;5038739;28;20086;-67
2021/11/05 17:35:29;;;;;;;1.83;1.60;;;;;;;1.69;100.00;96048.59;5066916;28;20085;-66
2021/11/05 17:37:54;;;;;;;2.55;1.60;;;;;;;1.63;100.00;96049.38;5045692;28;20318;-66
2021/11/05 17:40:27;;;;;;;2.00;1.40;;;;;;;1.62;100.00;96059.06;5061443;28;20027;-68
2021/11/05 17:42:52;;;;;;;1.80;1.60;;;;;;;1.57;100.00;96058.81;5058578;28;20257;-67
2021/11/05 17:45:18;;;;;;;1.92;1.33;;;;;;;1.53;100.00;96062.84;5064175;28;20506;-67
2021/11/05 17:47:49;;;;;;;3.13;1.38;;;;;;;1.52;100.00;96071.78;5061062;28;20088;-68
2021/11/05 17:50:16;;;;;;;2.28;1.50;;;;;;;1.47;100.00;96066.22;5061385;28;20076;-67
2021/11/05 17:52:44;;;;;;;1.88;1.45;;;;;;;1.42;100.00;96064.13;5065853;28;20020;-68
2021/11/05 17:55:13;;;;;;;2.38;1.45;;;;;;;1.36;100.00;96067.50;5047106;28;20019;-68
2021/11/05 17:57:38;;;;;;;2.20;1.60;;;;;;;1.33;100.00;96070.50;5056015;28;20196;-68
2021/11/05 18:00:09;;;;;;;2.38;1.95;;;;;;;1.29;100.00;96068.41;5052955;28;20514;-66
2021/11/05 18:02:35;;;;;;;2.60;1.75;;;;;;;1.25;100.00;96067.16;5034414;28;20038;-68
2021/11/05 18:05:00;;;;;;;3.38;1.83;;;;;;;1.23;100.00;96074.44;5061394;28;20024;-68
2021/11/05 18:07:25;;;;;;;2.60;1.80;;;;;;;1.21;100.00;96068.53;5066677;28;20020;-67
2021/11/05 18:09:54;;;;;;;2.03;1.80;;;;;;;1.21;100.00;96066.69;5062191;28;20025;-68
2021/11/05 18:12:19;;;;;;;1.70;1.40;;;;;;;1.24;100.00;96073.44;5067840;28;20036;-66
2021/11/05 18:14:45;;;;;;;2.50;1.92;;;;;;;1.24;100.00;96074.25;5063888;28;20077;-68
2021/11/05 18:17:13;;;;;;;2.92;1.70;;;;;;;1.21;100.00;96077.25;5060791;28;20025;-67
2021/11/05 18:19:38;;;;;;;1.77;1.50;;;;;;;1.18;100.00;96069.69;5066273;28;20123;-67
2021/11/05 18:22:16;;;;;;;2.95;1.65;;;;;;;1.13;100.00;96072.06;5070517;28;20111;-68
2021/11/05 18:24:42;;;;;;;2.80;2.10;;;;;;;1.17;100.00;96081.25;5070482;28;20479;-67
2021/11/05 18:27:07;;;;;;;3.33;2.05;;;;;;;1.18;100.00;96074.97;5071850;28;20025;-68
2021/11/05 18:29:38;;;;;;;3.83;2.13;;;;;;;1.19;100.00;96070.50;5071797;28;20016;-67
2021/11/05 18:32:04;;;;;;;2.80;1.90;;;;;;;1.16;100.00;96069.06;5071653;28;20410;-67
2021/11/05 18:34:35;;;;;;;3.03;2.08;;;;;;;1.14;100.00;96063.97;5053839;28;20032;-68
2021/11/05 18:37:01;;;;;;;2.80;2.00;;;;;;;1.15;100.00;96070.88;5070514;28;20028;-67
2021/11/05 18:39:27;;;;;;;2.65;2.20;;;;;;;1.19;100.00;96058.13;5073434;28;20364;-68
2021/11/05 18:41:53;;;;;;;3.58;2.42;;;;;;;1.22;100.00;96060.41;5074185;28;20107;-68
2021/11/05 18:44:22;;;;;;;3.72;2.65;;;;;;;1.26;100.00;96058.22;5074396;28;20471;-68
2021/11/05 18:46:51;;;;;;;2.80;2.13;;;;;;;1.23;100.00;96055.97;5074240;28;20086;-68
2021/11/05 18:49:16;;;;;;;3.20;2.45;;;;;;;1.16;100.00;96056.69;5075340;28;20548;-68
2021/11/05 18:51:43;;;;;;;6.13;3.75;;;;;;;1.15;100.00;96052.41;5057061;28;20032;-67
2021/11/05 18:54:11;;;;;;;4.50;2.80;;;;;;;1.15;100.00;96055.03;5074084;28;20161;-67
2021/11/05 18:56:36;;;;;;;5.03;2.88;;;;;;;1.17;100.00;96053.03;5075201;28;20033;-68
2021/11/05 18:59:11;;;;;;;4.07;2.65;;;;;;;1.14;100.00;96042.84;5073841;28;20383;-68
2021/11/05 19:01:36;;;;;;;2.90;2.38;;;;;;;1.12;100.00;96046.69;5073554;28;20127;-68
2021/11/05 19:04:02;;;;;;;3.88;2.70;;;;;;;1.18;100.00;96051.22;5073893;28;20064;-67
2021/11/05 19:06:27;;;;;;;4.28;2.80;;;;;;;1.19;100.00;96054.66;5056859;28;20467;-68
2021/11/05 19:08:56;;;;;;;3.10;2.60;;;;;;;1.21;100.00;96045.59;5057211;28;20493;-67
2021/11/05 19:11:21;;;;;;;2.78;2.38;;;;;;;1.27;100.00;96052.75;5064017;28;20055;-67
2021/11/05 19:13:47;;;;;;;2.60;2.10;;;;;;;1.30;100.00;96047.13;5066296;28;20029;-67
2021/11/05 19:16:16;;;;;;;3.38;2.60;;;;;;;1.30;100.00;96048.94;5054897;28;20021;-67
2021/11/05 19:18:43;;;;;;;3.33;2.67;;;;;;;1.27;100.00;96044.84;5054872;28;20025;-68
2021/11/05 19:21:10;;;;;;;3.78;2.42;;;;;;;1.26;100.00;96045.03;5054561;28;20029;-68
2021/11/05 19:23:39;;;;;;;3.30;2.10;;;;;;;1.22;100.00;96044.59;5036977;28;20025;-67
2021/11/05 19:26:10;;;;;;;3.17;2.30;;;;;;;1.19;100.00;96049.38;5054597;28;20104;-67
2021/11/05 19:28:38;;;;;;;2.67;2.13;;;;;;;1.14;100.00;96039.41;5036882;28;20021;-68
2021/11/05 19:31:06;;;;;;;2.95;2.47;;;;;;;1.12;100.00;96038.75;5053289;28;20089;-67
2021/11/05 19:33:32;;;;;;;2.50;2.28;;;;;;;1.09;100.00;96044.41;5054357;28;20490;-67
2021/11/05 19:36:12;;;;;;;4.38;2.45;;;;;;;1.05;100.00;96040.47;5053316;28;20087;-67
2021/11/05 19:38:43;;;;;;;3.47;2.80;;;;;;;0.96;100.00;96036.28;5054617;28;20578;-68
2021/11/05 19:41:13;;;;;;;5.97;2.83;;;;;;;0.90;100.00;96037.03;5053001;28;20108;-68
2021/11/05 19:43:41;;;;;;;3.92;3.15;;;;;;;0.86;100.00;96039.19;5054349;28;20025;-67
2021/11/05 19:46:08;;;;;;;4.32;3.10;;;;;;;0.83;100.00;96047.47;5052885;28;20032;-68
2021/11/05 19:48:37;;;;;;;4.20;3.20;;;;;;;0.80;100.00;96042.56;5053128;28;20115;-68
2021/11/05 19:51:04;;;;;;;5.43;3.13;;;;;;;0.73;100.00;96039.81;5052785;28;20027;-68
2021/11/05 19:53:36;;;;;;;4.07;2.88;;;;;;;0.69;100.00;96046.47;5054005;28;20091;-67
2021/11/05 19:56:02;;;;;;;3.38;2.88;;;;;;;0.64;100.00;96048.00;5060251;28;20059;-67
2021/11/05 19:58:28;;;;;;;4.25;2.83;;;;;;;0.56;100.00;96055.00;5039228;28;20543;-68
2021/11/05 20:00:53;;;;;;;4.15;2.60;;;;;;;0.52;100.00;96056.34;5072831;28;20031;-68
2021/11/05 20:03:19;;;;;;;3.45;2.60;;;;;;;0.51;100.00;96059.16;5072612;28;20070;-68
2021/11/05 20:05:47;;;;;;;3.55;2.65;;;;;;;0.50;100.00;96054.88;5073994;28;20386;-67
2021/11/05 20:08:13;;;;;;;2.97;2.33;;;;;;;0.48;100.00;96055.06;5073863;28;20020;-67
2021/11/05 20:10:49;;;;;;;2.53;2.20;;;;;;;0.49;100.00;96051.44;5055911;28;20028;-68
2021/11/05 20:13:24;;;;;;;2.53;2.17;;;;;;;0.52;100.00;96058.16;5069165;28;20040;-67
2021/11/05 20:15:50;;;;;;;3.92;2.60;;;;;;;0.56;100.00;96062.91;5052652;28;20020;-68
2021/11/05 20:18:16;;;;;;;3.67;2.70;;;;;;;0.57;100.00;96063.72;5052428;28;20024;-67
2021/11/05 20:20:42;;;;;;;2.67;2.38;;;;;;;0.54;100.00;96064.06;5052500;28;20100;-68
2021/11/05 20:23:14;;;;;;;5.88;2.70;;;;;;;0.48;100.00;96060.34;5035791;28;20640;-68
2021/11/05 20:25:52;;;;;;;4.70;2.50;;;;;;;0.47;100.00;96068.44;5035596;28;20029;-67
2021/11/05 20:28:18;;;;;;;3.00;2.45;;;;;;;0.46;100.00;96061.53;5059463;28;20029;-67
2021/11/05 20:30:46;;;;;;;5.47;3.10;;;;;;;0.52;100.00;96058.16;5055372;28;20085;-68
2021/11/05 20:33:20;;;;;;;3.70;2.92;;;;;;;0.54;100.00;96067.53;5073396;28;20168;-68
2021/11/05 20:35:53;;;;;;;3.25;2.58;;;;;;;0.53;100.00;96057.16;5073317;28;20016;-68
2021/11/05 20:38:20;;;;;;;3.38;2.50;;;;;;;0.51;100.00;96069.69;5072096;28;20024;-67
2021/11/05 20:40:49;;;;;;;3.65;2.47;;;;;;;0.50;100.00;96068.06;5072076;28;20103;-67
2021/11/05 20:43:19;;;;;;;3.92;2.88;;;;;;;0.47;100.00;96079.78;5038831;28;20016;-67
2021/11/05 20:45:53;;;;;;;6.28;2.72;;;;;;;0.41;100.00;96074.41;5071923;28;20024;-68
2021/11/05 20:48:21;;;;;;;5.53;3.65;;;;;;;0.32;100.00;96080.72;5071968;28;20032;-66
2021/11/05 20:50:49;;;;;;;4.15;3.40;;;;;;;0.23;100.00;96090.53;5073711;28;20458;-68
2021/11/05 20:53:15;;;;;;;6.07;3.22;;;;;;;0.17;100.00;96089.41;5056104;28;20386;-67
2021/11/05 20:55:42;;;;;;;7.57;6.00;;;;;;;0.13;100.00;96097.84;5071869;28;20024;-67
2021/11/05 20:58:09;;;;;;;5.13;4.30;;;;;;;0.07;100.00;96099.34;5071674;28;20032;-68
2021/11/05 21:00:43;;;;;;;5.43;3.90;;;;;;;0.06;100.00;96096.88;5048468;28;20503;-67
2021/11/05 21:03:14;;;;;;;4.18;2.90;;;;;;;0.06;100.00;96096.88;5050985;28;20024;-68
2021/11/05 21:05:44;;;;;;;4.28;2.90;;;;;;;0.06;100.00;96087.16;5051700;28;20044;-68
2021/11/05 21:08:09;;;;;;;3.53;2.92;;;;;;;0.07;100.00;96091.44;5034931;28;20533;-68
2021/11/05 21:10:37;;;;;;;4.57;2.90;;;;;;;0.06;100.00;96095.06;5035018;28;20041;-67
2021/11/05 21:13:07;;;;;;;3.90;3.05;;;;;;;0.06;100.00;96100.34;5067589;28;20045;-67
2021/11/05 21:15:32;;;;;;;6.40;3.20;;;;;;;0.05;100.00;96105.78;5071257;28;20398;-67
2021/11/05 21:17:59;;;;;;;4.22;3.20;;;;;;;0.02;100.00;96111.41;5071373;28;20028;-67
2021/11/05 21:20:25;;;;;;;3.60;2.80;;;;;;;-0.02;100.00;96105.66;5071237;28;20028;-66
2021/11/05 21:22:51;;;;;;;3.85;2.95;;;;;;;-0.06;100.00;96107.81;5070735;28;20023;-67
2021/11/05 21:25:17;;;;;;;4.07;2.75;;;;;;;-0.11;100.00;96106.69;5053620;28;20535;-67
2021/11/05 21:27:42;;;;;;;4.88;3.13;;;;;;;-0.14;100.00;96107.88;5071252;28;20024;-67
2021/11/05 21:30:08;;;;;;;3.25;2.60;;;;;;;-0.12;100.00;96102.41;5054315;28;20028;-67
2021/11/05 21:32:37;;;;;;;3.65;2.90;;;;;;;-0.12;100.00;96100.59;5071286;28;20035;-67
2021/11/05 21:35:04;;;;;;;4.45;2.88;;;;;;;-0.15;100.00;96105.41;5071345;28;20020;-67
2021/11/05 21:37:35;;;;;;;5.07;2.90;;;;;;;-0.25;100.00;96103.00;5071220;28;20017;-67
2021/11/05 21:40:07;;;;;;;3.85;3.15;;;;;;;-0.30;100.00;96107.97;5071403;28;20020;-67
2021/11/05 21:42:32;;;;;;;4.68;2.90;;;;;;;-0.33;100.00;96116.19;5072293;28;20449;-67
2021/11/05 21:44:58;;;;;;;3.90;3.00;;;;;;;-0.35;100.00;96107.66;5071276;28;20025;-67
2021/11/05 21:47:24;;;;;;;4.07;2.75;;;;;;;-0.36;100.00;96106.00;5071177;28;20024;-67
2021/11/05 21:49:50;;;;;;;5.53;2.78;;;;;;;-0.40;100.00;96109.97;5072461;28;20421;-67
2021/11/05 21:52:15;;;;;;;7.57;3.67;;;;;;;-0.44;100.00;96104.22;5070903;28;20093;-67
2021/11/05 21:54:44;;;;;;;5.05;3.60;;;;;;;-0.48;100.00;96105.56;5071135;28;20020;-67
2021/11/05 21:57:09;;;;;;;5.63;3.90;;;;;;;-0.49;100.00;96109.19;5070850;28;20490;-67
2021/11/05 21:59:38;;;;;;;6.97;4.00;;;;;;;-0.45;100.00;96105.22;5072338;28;20032;-67
2021/11/05 22:02:04;;;;;;;5.57;3.90;;;;;;;-0.42;100.00;96112.78;5054568;28;20422;-66
2021/11/05 22:04:33;;;;;;;6.90;4.72;;;;;;;-0.36;100.00;96117.34;5071047;28;20031;-67
2021/11/05 22:06:58;;;;;;;6.05;4.45;;;;;;;-0.26;100.00;96105.78;5070923;28;20107;-67
2021/11/05 22:09:24;;;;;;;4.78;4.05;;;;;;;-0.20;100.00;96105.94;5072193;28;20428;-67
2021/11/05 22:11:52;;;;;;;6.40;4.47;;;;;;;-0.19;100.00;96110.22;5071545;28;20079;-67
2021/11/05 22:14:18;;;;;;;5.50;4.18;;;;;;;-0.21;100.00;96101.66;5072788;28;20059;-67
2021/11/05 22:16:43;;;;;;;7.68;4.63;;;;;;;-0.24;100.00;96106.44;5074909;28;20048;-67
2021/11/05 22:19:09;;;;;;;7.65;4.70;;;;;;;-0.22;100.00;96099.19;5076128;28;20052;-67
2021/11/05 22:21:34;;;;;;;6.88;4.03;;;;;;;-0.26;100.00;96097.91;5075926;28;20031;-67
2021/11/05 22:24:01;;;;;;;7.07;5.07;;;;;;;-0.23;100.00;96095.72;5075922;28;20063;-67
2021/11/05 22:26:26;;;;;;;6.10;4.50;;;;;;;-0.21;100.00;96098.22;5074568;28;20078;-67
2021/11/05 22:28:52;;;;;;;7.10;4.90;;;;;;;-0.22;100.00;96101.81;5058040;28;20391;-66
2021/11/05 22:31:17;;;;;;;6.40;4.97;;;;;;;-0.28;100.00;96102.53;5074624;28;20035;-67
2021/11/05 22:33:45;;;;;;;14.45;7.85;;;;;;;-0.27;100.00;96097.09;5074650;28;20013;-67
2021/11/05 22:36:16;;;;;;;61.03;26.45;;;;;;;-0.09;100.00;96095.00;5075780;28;20029;-67
2021/11/05 22:38:41;;;;;;;16.67;9.77;;;;;;;0.08;100.00;96092.25;5074395;28;20069;-67
2021/11/05 22:41:07;;;;;;;12.30;7.40;;;;;;;0.10;100.00;96101.63;5074288;28;20024;-67
2021/11/05 22:43:33;;;;;;;8.65;5.70;;;;;;;0.07;100.00;96098.53;5075570;28;20390;-67
2021/11/05 22:46:01;;;;;;;10.13;5.90;;;;;;;0.03;100.00;96098.06;5057674;28;20506;-67
2021/11/05 22:48:26;;;;;;;6.55;5.15;;;;;;;0.01;100.00;96093.97;5075504;28;20042;-67
2021/11/05 22:50:52;;;;;;;8.02;5.57;;;;;;;-0.02;100.00;96098.56;5074103;28;20021;-67
2021/11/05 22:53:21;;;;;;;9.43;6.20;;;;;;;-0.08;100.00;96088.75;5057465;28;20390;-67
2021/11/05 22:55:53;;;;;;;7.28;5.90;;;;;;;-0.09;100.00;96099.47;5074180;28;20036;-67
2021/11/05 22:58:18;;;;;;;6.80;5.53;;;;;;;-0.14;100.00;96099.16;5075368;28;20475;-67
2021/11/05 23:00:50;;;;;;;7.68;5.57;;;;;;;-0.22;100.00;96110.53;5057098;28;20277;-66
2021/11/05 23:03:22;;;;;;;11.27;6.22;;;;;;;-0.25;100.00;96104.81;5057479;28;20077;-66
2021/11/05 23:05:47;;;;;;;11.40;5.60;;;;;;;-0.22;100.00;96107.06;5074117;28;20486;-66
2021/11/05 23:08:16;;;;;;;10.50;5.75;;;;;;;-0.22;100.00;96109.72;5074972;28;20085;-67
2021/11/05 23:10:42;;;;;;;8.15;5.50;;;;;;;-0.26;100.00;96117.16;5073806;28;20025;-67
2021/11/05 23:13:08;;;;;;;11.90;5.35;;;;;;;-0.37;100.00;96113.09;5051247;22;20070;-57
2021/11/05 23:15:33;;;;;;;7.53;5.25;;;;;;;-0.46;100.00;96119.38;5032925;28;20060;-59
2021/11/05 23:18:02;;;;;;;6.78;5.15;;;;;;;-0.54;100.00;96126.47;5034736;28;20029;-61
2021/11/05 23:20:28;;;;;;;6.53;5.20;;;;;;;-0.58;100.00;96131.25;5033637;28;20032;-59
2021/11/05 23:22:56;;;;;;;5.88;4.68;;;;;;;-0.62;100.00;96133.41;5021634;28;20018;-60
2021/11/05 23:25:22;;;;;;;7.07;4.70;;;;;;;-0.65;100.00;96132.94;4997383;28;20500;-60
2021/11/05 23:27:47;;;;;;;5.78;4.05;;;;;;;-0.72;100.00;96138.06;5013863;28;20029;-61
2021/11/05 23:30:13;;;;;;;6.93;4.63;;;;;;;-0.75;100.00;96140.22;5015120;28;20036;-61
2021/11/05 23:32:38;;;;;;;5.75;4.35;;;;;;;-0.80;100.00;96138.06;5013560;28;20026;-61
2021/11/05 23:35:04;;;;;;;7.22;4.97;;;;;;;-0.81;100.00;96140.88;5014765;28;20037;-61
2021/11/05 23:37:35;;;;;;;7.00;4.72;;;;;;;-0.81;100.00;96146.94;5013862;28;20029;-59
2021/11/05 23:40:10;;;;;;;7.05;5.00;;;;;;;-0.73;100.00;96146.94;5014846;28;20097;-60
2021/11/05 23:42:36;;;;;;;7.18;4.95;;;;;;;-0.62;100.00;96148.38;5014660;28;20026;-59
2021/11/05 23:45:05;;;;;;;8.15;5.45;;;;;;;-0.51;100.00;96148.03;5014640;28;20088;-60
2021/11/05 23:47:30;;;;;;;6.88;5.50;;;;;;;-0.40;100.00;96145.03;5013349;28;20025;-61
2021/11/05 23:49:55;;;;;;;8.85;6.13;;;;;;;-0.27;100.00;96141.00;4997062;28;20030;-59
2021/11/05 23:52:21;;;;;;;8.55;5.95;;;;;;;-0.18;100.00;96142.63;5013257;28;20027;-61
2021/11/05 23:54:49;;;;;;;8.38;5.97;;;;;;;-0.08;100.00;96140.59;4997064;28;20065;-59
2021/11/05 23:57:14;;;;;;;8.60;5.93;;;;;;;0.02;100.00;96145.66;5014496;28;20068;-59
2021/11/05 23:59:42;;;;;;;8.13;5.65;;;;;;;0.13;100.00;96143.44;5013238;28;20026;-57
